createdAt,value
2022-12-27T00:00:43.923Z,18.08
2022-12-27T00:02:45.654Z,17.98
2022-12-27T00:04:47.374Z,19.80
2022-12-27T00:06:48.882Z,19.35
2022-12-27T00:08:51.271Z,19.20
2022-12-27T00:10:52.821Z,20.42
2022-12-27T00:12:54.398Z,19.60
2022-12-27T00:14:55.874Z,20.05
2022-12-27T00:16:57.394Z,19.88
2022-12-27T00:18:59.841Z,20.08
2022-12-27T00:21:02.894Z,19.98
2022-12-27T00:23:04.409Z,21.17
2022-12-27T00:25:06.344Z,23.40
2022-12-27T00:27:08.018Z,23.30
2022-12-27T00:29:10.518Z,23.25
2022-12-27T00:31:12.915Z,24.63
2022-12-27T00:33:14.429Z,24.77
2022-12-27T00:35:16.049Z,24.75
2022-12-27T00:37:17.540Z,25.92
2022-12-27T00:39:19.089Z,27.58
2022-12-27T00:41:21.046Z,27.95
2022-12-27T00:43:22.628Z,28.38
2022-12-27T00:45:24.184Z,28.60
2022-12-27T00:47:25.812Z,29.20
2022-12-27T00:49:27.367Z,27.35
2022-12-27T00:51:29.018Z,26.70
2022-12-27T00:53:31.209Z,23.15
2022-12-27T00:55:32.904Z,18.67
2022-12-27T00:57:34.378Z,17.20
2022-12-27T00:59:35.865Z,15.68
2022-12-27T01:01:38.481Z,13.23
2022-12-27T01:03:40.556Z,11.45
2022-12-27T01:05:42.165Z,10.00
2022-12-27T01:07:43.819Z,7.63
2022-12-27T01:09:45.342Z,6.60
2022-12-27T01:11:46.882Z,6.60
2022-12-27T01:13:49.132Z,5.43
2022-12-27T01:15:50.856Z,5.72
2022-12-27T01:17:52.405Z,4.85
2022-12-27T01:19:54.144Z,6.55
2022-12-27T01:21:55.679Z,5.97
2022-12-27T01:23:58.113Z,6.40
2022-12-27T01:26:06.216Z,8.00
2022-12-27T01:28:07.744Z,9.13
2022-12-27T01:30:09.851Z,8.85
2022-12-27T01:32:11.420Z,7.85
2022-12-27T01:34:12.972Z,8.98
2022-12-27T01:36:20.118Z,7.22
2022-12-27T01:38:21.664Z,8.30
2022-12-27T01:40:23.374Z,8.48
2022-12-27T01:42:43.630Z,9.13
2022-12-27T01:44:51.184Z,10.15
2022-12-27T01:46:52.734Z,10.68
2022-12-27T01:48:54.776Z,9.18
2022-12-27T01:51:04.181Z,9.63
2022-12-27T01:53:19.855Z,7.80
2022-12-27T01:55:28.929Z,8.93
2022-12-27T01:57:30.681Z,8.35
2022-12-27T01:59:33.809Z,7.03
2022-12-27T02:01:40.263Z,9.43
2022-12-27T02:03:48.497Z,9.48
2022-12-27T02:05:50.847Z,9.95
2022-12-27T02:08:30.768Z,9.18
2022-12-27T02:10:32.861Z,9.65
2022-12-27T02:12:34.389Z,8.40
2022-12-27T02:14:47.947Z,8.75
2022-12-27T02:16:49.984Z,9.27
2022-12-27T02:18:51.610Z,9.70
2022-12-27T02:21:10.469Z,8.88
2022-12-27T02:23:52.103Z,9.43
2022-12-27T02:26:15.222Z,9.93
2022-12-27T02:28:54.317Z,8.80
2022-12-27T02:31:04.943Z,6.63
2022-12-27T02:33:20.069Z,7.63
2022-12-27T02:35:37.764Z,6.78
2022-12-27T02:38:00.321Z,6.78
2022-12-27T02:40:23.205Z,6.05
2022-12-27T02:42:43.215Z,6.22
2022-12-27T02:45:05.306Z,1.70
2022-12-27T02:47:44.796Z,0.00
2022-12-27T02:50:04.804Z,1.45
2022-12-27T02:52:50.003Z,0.52
2022-12-27T02:55:29.459Z,0.00
2022-12-27T02:58:04.942Z,0.00
2022-12-27T03:00:32.310Z,0.00
2022-12-27T03:03:18.770Z,0.00
2022-12-27T03:05:31.458Z,0.35
2022-12-27T03:07:47.165Z,0.00
2022-12-27T03:10:20.470Z,0.00
2022-12-27T03:13:29.189Z,0.00
2022-12-27T03:15:57.911Z,0.00
2022-12-27T03:18:14.966Z,0.00
2022-12-27T03:20:37.190Z,0.00
2022-12-27T03:23:00.040Z,0.00
2022-12-27T03:25:21.335Z,0.00
2022-12-27T03:27:36.094Z,0.00
2022-12-27T03:29:56.526Z,0.00
2022-12-27T03:32:22.343Z,0.00
2022-12-27T03:34:33.246Z,0.10
2022-12-27T03:36:54.095Z,0.52
2022-12-27T03:39:05.403Z,0.00
2022-12-27T03:41:27.223Z,1.10
2022-12-27T03:43:29.666Z,0.00
2022-12-27T03:45:58.048Z,0.30
2022-12-27T03:48:04.923Z,0.00
2022-12-27T03:50:16.079Z,0.52
2022-12-27T03:52:25.320Z,0.00
2022-12-27T03:54:31.899Z,0.00
2022-12-27T03:56:33.761Z,0.00
2022-12-27T03:58:35.508Z,0.00
2022-12-27T04:00:37.135Z,0.00
2022-12-27T04:02:38.851Z,0.10
2022-12-27T04:04:40.783Z,0.00
2022-12-27T04:06:42.315Z,0.17
2022-12-27T04:09:02.306Z,0.00
2022-12-27T04:11:22.728Z,0.00
2022-12-27T04:13:42.894Z,0.00
2022-12-27T04:16:02.901Z,0.00
2022-12-27T04:18:23.196Z,0.08
2022-12-27T04:20:44.179Z,0.00
2022-12-27T04:23:04.144Z,0.50
2022-12-27T04:25:24.543Z,0.10
2022-12-27T04:27:44.610Z,0.00
2022-12-27T04:30:04.805Z,0.00
2022-12-27T04:32:24.992Z,0.00
2022-12-27T04:34:44.855Z,0.00
2022-12-27T04:36:46.541Z,0.00
2022-12-27T04:38:48.084Z,0.10
2022-12-27T04:41:08.231Z,1.17
2022-12-27T04:43:42.402Z,0.00
2022-12-27T04:46:02.658Z,0.47
2022-12-27T04:48:23.325Z,0.20
2022-12-27T04:50:51.226Z,0.00
2022-12-27T04:53:11.592Z,0.10
2022-12-27T04:55:28.170Z,0.15
2022-12-27T04:57:29.758Z,0.10
2022-12-27T04:59:50.146Z,0.00
2022-12-27T05:02:04.091Z,0.00
2022-12-27T05:04:05.800Z,0.00
2022-12-27T05:06:07.820Z,0.00
2022-12-27T05:08:28.839Z,0.00
2022-12-27T05:10:48.802Z,0.00
2022-12-27T05:13:08.903Z,0.20
2022-12-27T05:15:10.393Z,0.00
2022-12-27T05:17:11.987Z,0.00
2022-12-27T05:19:14.732Z,0.00
2022-12-27T05:21:16.288Z,0.00
2022-12-27T05:23:36.806Z,0.00
2022-12-27T05:25:42.879Z,0.00
2022-12-27T05:27:44.412Z,0.10
2022-12-27T05:29:46.321Z,0.00
2022-12-27T05:31:47.849Z,0.00
2022-12-27T05:33:50.311Z,0.00
2022-12-27T05:35:51.858Z,0.00
2022-12-27T05:37:55.307Z,0.00
2022-12-27T05:39:56.884Z,0.00
2022-12-27T05:41:58.495Z,0.00
2022-12-27T05:44:06.526Z,0.30
2022-12-27T05:46:15.555Z,1.13
2022-12-27T05:48:17.113Z,1.17
2022-12-27T05:50:18.756Z,0.80
2022-12-27T05:52:20.271Z,0.60
2022-12-27T05:54:21.831Z,0.73
2022-12-27T05:56:23.481Z,0.65
2022-12-27T05:58:25.671Z,0.17
2022-12-27T06:00:27.330Z,0.47
2022-12-27T06:02:28.988Z,0.20
2022-12-27T06:04:30.653Z,3.60
2022-12-27T06:06:34.277Z,1.98
2022-12-27T06:08:37.085Z,0.85
2022-12-27T06:10:38.593Z,1.17
2022-12-27T06:12:40.121Z,1.02
2022-12-27T06:14:41.623Z,5.55
2022-12-27T06:16:43.175Z,5.35
2022-12-27T06:18:45.798Z,1.73
2022-12-27T06:20:47.300Z,0.30
2022-12-27T06:22:48.882Z,0.20
2022-12-27T06:24:50.418Z,0.68
2022-12-27T06:26:51.987Z,3.13
2022-12-27T06:28:55.550Z,2.20
2022-12-27T06:30:59.488Z,3.85
2022-12-27T06:33:01.016Z,3.10
2022-12-27T06:35:02.976Z,2.88
2022-12-27T06:37:04.570Z,3.92
2022-12-27T06:39:06.156Z,2.28
2022-12-27T06:41:10.883Z,3.40
2022-12-27T06:43:12.557Z,1.83
2022-12-27T06:45:14.351Z,1.10
2022-12-27T06:47:15.913Z,0.15
2022-12-27T06:49:17.510Z,0.75
2022-12-27T06:51:20.972Z,0.20
2022-12-27T06:53:22.540Z,1.58
2022-12-27T06:55:24.326Z,0.52
2022-12-27T06:57:25.895Z,0.30
2022-12-27T06:59:27.409Z,1.23
2022-12-27T07:01:29.163Z,1.13
2022-12-27T07:03:30.785Z,4.57
2022-12-27T07:05:34.641Z,3.42
2022-12-27T07:07:36.197Z,1.95
2022-12-27T07:09:37.697Z,1.83
2022-12-27T07:11:39.247Z,2.78
2022-12-27T07:13:43.523Z,2.90
2022-12-27T07:15:45.051Z,2.58
2022-12-27T07:17:46.557Z,6.15
2022-12-27T07:19:48.320Z,0.98
2022-12-27T07:21:50.189Z,0.85
2022-12-27T07:23:52.079Z,0.10
2022-12-27T07:25:53.646Z,0.20
2022-12-27T07:27:55.419Z,1.05
2022-12-27T07:29:56.940Z,1.02
2022-12-27T07:31:58.475Z,0.17
2022-12-27T07:34:02.641Z,0.40
2022-12-27T07:36:06.884Z,0.20
2022-12-27T07:38:08.454Z,0.68
2022-12-27T07:40:10.174Z,1.08
2022-12-27T07:42:11.794Z,0.10
2022-12-27T07:44:13.374Z,0.77
2022-12-27T07:46:18.414Z,1.55
2022-12-27T07:48:19.992Z,0.00
2022-12-27T07:50:21.572Z,0.30
2022-12-27T07:52:23.138Z,2.75
2022-12-27T07:54:24.670Z,1.38
2022-12-27T07:56:28.291Z,1.98
2022-12-27T07:58:29.789Z,0.95
2022-12-27T08:00:31.325Z,2.85
2022-12-27T08:02:32.863Z,3.63
2022-12-27T08:04:37.321Z,0.77
2022-12-27T08:06:38.904Z,0.47
2022-12-27T08:08:43.355Z,0.50
2022-12-27T08:10:45.092Z,2.53
2022-12-27T08:12:46.642Z,0.77
2022-12-27T08:14:48.190Z,2.33
2022-12-27T08:16:49.853Z,2.42
2022-12-27T08:18:53.145Z,0.88
2022-12-27T08:20:54.880Z,2.35
2022-12-27T08:22:56.417Z,2.92
2022-12-27T08:24:57.940Z,4.72
2022-12-27T08:26:59.537Z,0.17
2022-12-27T08:29:01.042Z,0.10
2022-12-27T08:31:06.416Z,0.38
2022-12-27T08:33:08.179Z,0.10
2022-12-27T08:35:41.872Z,0.00
2022-12-27T08:37:31.318Z,0.10
2022-12-27T08:39:32.830Z,0.00
2022-12-27T08:41:34.336Z,1.38
2022-12-27T08:43:35.901Z,0.00
2022-12-27T08:45:39.515Z,0.03
2022-12-27T08:47:41.014Z,0.10
2022-12-27T08:49:42.619Z,0.40
2022-12-27T08:51:44.158Z,0.00
2022-12-27T08:53:45.671Z,0.03
2022-12-27T08:55:47.209Z,0.10
2022-12-27T08:57:48.786Z,0.00
2022-12-27T08:59:50.425Z,0.15
2022-12-27T09:01:52.061Z,0.00
2022-12-27T09:03:53.783Z,0.10
2022-12-27T09:05:55.298Z,1.95
2022-12-27T09:07:58.476Z,0.45
2022-12-27T09:10:00.006Z,0.10
2022-12-27T09:12:04.267Z,0.10
2022-12-27T09:14:10.563Z,0.30
2022-12-27T09:16:14.712Z,2.75
2022-12-27T09:18:16.361Z,1.65
2022-12-27T09:20:18.007Z,1.35
2022-12-27T09:22:19.497Z,2.95
2022-12-27T09:24:21.127Z,0.15
2022-12-27T09:26:26.244Z,0.20
2022-12-27T09:28:27.767Z,1.42
2022-12-27T09:30:29.959Z,0.20
2022-12-27T09:32:31.802Z,0.70
2022-12-27T09:34:33.408Z,1.30
2022-12-27T09:36:38.844Z,1.27
2022-12-27T09:38:41.589Z,1.08
2022-12-27T09:40:58.041Z,1.38
2022-12-27T09:43:20.625Z,0.35
2022-12-27T09:45:42.499Z,1.10
2022-12-27T09:47:56.065Z,1.83
2022-12-27T09:50:06.377Z,1.05
2022-12-27T09:52:16.956Z,0.20
2022-12-27T09:54:25.619Z,0.40
2022-12-27T09:56:47.388Z,1.25
2022-12-27T09:59:03.025Z,0.80
2022-12-27T10:01:25.934Z,0.65
2022-12-27T10:03:29.964Z,0.40
2022-12-27T10:05:34.928Z,1.10
2022-12-27T10:08:20.389Z,0.52
2022-12-27T10:10:24.745Z,0.43
2022-12-27T10:12:47.421Z,0.20
2022-12-27T10:14:57.082Z,2.33
2022-12-27T10:17:21.248Z,1.75
2022-12-27T10:19:43.632Z,1.35
2022-12-27T10:22:23.535Z,1.33
2022-12-27T10:24:35.140Z,2.28
2022-12-27T10:26:38.727Z,0.25
2022-12-27T10:28:43.714Z,0.20
2022-12-27T10:30:45.598Z,1.10
2022-12-27T10:32:48.715Z,0.52
2022-12-27T10:34:58.244Z,1.75
2022-12-27T10:36:59.778Z,0.40
2022-12-27T10:39:05.901Z,0.20
2022-12-27T10:41:24.901Z,1.00
2022-12-27T10:43:38.695Z,0.10
2022-12-27T10:45:42.399Z,0.40
2022-12-27T10:47:43.972Z,0.00
2022-12-27T10:50:04.006Z,0.95
2022-12-27T10:52:15.755Z,2.90
2022-12-27T10:54:29.441Z,0.03
2022-12-27T10:56:41.491Z,1.20
2022-12-27T10:58:58.243Z,0.95
2022-12-27T11:01:00.563Z,0.95
2022-12-27T11:03:03.239Z,1.45
2022-12-27T11:05:05.057Z,1.50
2022-12-27T11:07:18.737Z,1.38
2022-12-27T11:09:26.867Z,0.50
2022-12-27T11:11:28.399Z,0.45
2022-12-27T11:13:29.933Z,0.50
2022-12-27T11:15:34.865Z,0.22
2022-12-27T11:17:44.340Z,0.10
2022-12-27T11:19:47.466Z,0.77
2022-12-27T11:21:49.657Z,0.10
2022-12-27T11:23:55.318Z,0.63
2022-12-27T11:25:59.991Z,0.00
2022-12-27T11:28:39.250Z,0.10
2022-12-27T11:30:41.799Z,0.57
2022-12-27T11:32:45.384Z,0.90
2022-12-27T11:34:49.056Z,1.23
2022-12-27T11:36:54.886Z,0.10
2022-12-27T11:38:57.431Z,0.10
2022-12-27T11:41:17.234Z,0.10
2022-12-27T11:45:38.951Z,0.15
2022-12-27T11:47:49.678Z,0.17
2022-12-27T11:49:57.871Z,0.13
2022-12-27T11:52:23.834Z,1.05
2022-12-27T11:54:59.337Z,0.30
2022-12-27T11:57:39.721Z,0.13
2022-12-27T12:00:13.460Z,0.10
2022-12-27T12:02:17.783Z,0.25
2022-12-27T12:05:06.907Z,0.13
2022-12-27T12:07:31.544Z,0.10
2022-12-27T12:10:01.744Z,0.00
2022-12-27T12:12:17.009Z,0.00
2022-12-27T12:14:54.738Z,0.00
2022-12-27T12:17:14.427Z,0.10
2022-12-27T12:19:53.928Z,0.00
2022-12-27T12:22:07.770Z,0.05
2022-12-27T12:24:26.065Z,0.20
2022-12-27T12:26:37.478Z,0.00
2022-12-27T12:28:57.630Z,0.00
2022-12-27T12:31:19.997Z,0.80
2022-12-27T12:34:14.750Z,1.10
2022-12-27T12:36:34.388Z,0.00
2022-12-27T12:38:38.912Z,1.90
2022-12-27T12:41:05.824Z,0.40
2022-12-27T12:43:38.607Z,0.10
2022-12-27T12:46:04.363Z,0.47
2022-12-27T12:48:19.896Z,0.82
2022-12-27T12:50:33.549Z,0.57
2022-12-27T12:53:05.365Z,0.10
2022-12-27T12:55:38.665Z,4.25
2022-12-27T12:57:53.742Z,0.75
2022-12-27T13:00:25.190Z,0.73
2022-12-27T13:02:58.703Z,0.80
2022-12-27T13:05:05.077Z,1.30
2022-12-27T13:07:25.170Z,0.82
2022-12-27T13:09:52.957Z,0.43
2022-12-27T13:12:52.261Z,0.10
2022-12-27T13:15:14.460Z,0.05
2022-12-27T13:17:33.683Z,0.40
2022-12-27T13:19:49.783Z,0.10
2022-12-27T13:21:54.073Z,0.03
2022-12-27T13:24:14.391Z,0.65
2022-12-27T13:26:24.912Z,0.73
2022-12-27T13:28:42.529Z,1.15
2022-12-27T13:31:18.269Z,0.88
2022-12-27T13:33:33.858Z,0.22
2022-12-27T13:36:06.969Z,0.90
2022-12-27T13:38:27.186Z,0.28
2022-12-27T13:40:51.604Z,0.40
2022-12-27T13:42:56.026Z,2.60
2022-12-27T13:45:15.570Z,0.90
2022-12-27T13:47:50.543Z,0.22
2022-12-27T13:50:13.360Z,1.58
2022-12-27T13:52:37.868Z,2.35
2022-12-27T13:54:56.504Z,1.50
2022-12-27T13:57:32.179Z,0.35
2022-12-27T13:59:51.706Z,0.40
2022-12-27T14:01:59.470Z,2.78
2022-12-27T14:04:40.004Z,3.17
2022-12-27T14:06:58.521Z,0.40
2022-12-27T14:09:29.034Z,0.10
2022-12-27T14:11:42.558Z,0.13
2022-12-27T14:13:44.622Z,0.17
2022-12-27T14:15:52.058Z,2.33
2022-12-27T14:18:19.717Z,2.20
2022-12-27T14:20:52.155Z,1.10
2022-12-27T14:23:19.023Z,1.55
2022-12-27T14:25:32.672Z,1.27
2022-12-27T14:28:00.119Z,2.38
2022-12-27T14:30:23.191Z,1.45
2022-12-27T14:32:42.516Z,1.42
2022-12-27T14:34:54.557Z,2.47
2022-12-27T14:37:05.167Z,4.25
2022-12-27T14:39:27.802Z,1.05
2022-12-27T14:42:03.896Z,0.45
2022-12-27T14:44:29.061Z,1.83
2022-12-27T14:46:36.604Z,4.82
2022-12-27T14:49:16.666Z,1.45
2022-12-27T14:52:12.077Z,0.65
2022-12-27T14:54:13.579Z,2.35
2022-12-27T14:56:36.640Z,2.53
2022-12-27T14:59:05.720Z,2.00
2022-12-27T15:01:21.365Z,0.45
2022-12-27T15:03:32.380Z,2.55
2022-12-27T15:05:48.465Z,1.80
2022-12-27T15:08:16.727Z,0.65
2022-12-27T15:10:18.308Z,1.55
2022-12-27T15:12:35.175Z,0.57
2022-12-27T15:15:12.733Z,1.25
2022-12-27T15:17:22.722Z,0.85
2022-12-27T15:20:06.013Z,0.40
2022-12-27T15:22:25.318Z,2.45
2022-12-27T15:24:45.193Z,0.45
2022-12-27T15:26:54.363Z,0.32
2022-12-27T15:29:21.401Z,2.17
2022-12-27T15:31:37.969Z,14.93
2022-12-27T15:34:00.899Z,24.95
2022-12-27T15:36:17.831Z,14.07
2022-12-27T15:38:39.338Z,29.73
2022-12-27T15:40:45.423Z,8.45
2022-12-27T15:42:57.785Z,16.52
2022-12-27T15:45:24.627Z,9.85
2022-12-27T15:48:23.355Z,10.23
2022-12-27T15:50:27.789Z,7.87
2022-12-27T15:52:46.921Z,9.73
2022-12-27T15:55:26.816Z,8.95
2022-12-27T15:57:38.829Z,12.85
2022-12-27T15:59:45.867Z,13.68
2022-12-27T16:01:47.737Z,17.35
2022-12-27T16:03:50.827Z,11.38
2022-12-27T16:05:53.362Z,9.05
2022-12-27T16:08:01.346Z,8.65
2022-12-27T16:10:30.825Z,11.45
2022-12-27T16:12:39.298Z,8.77
2022-12-27T16:14:43.143Z,15.30
2022-12-27T16:16:54.829Z,6.63
2022-12-27T16:19:20.902Z,10.38
2022-12-27T16:21:37.716Z,8.13
2022-12-27T16:23:54.388Z,7.47
2022-12-27T16:26:10.595Z,4.95
2022-12-27T16:28:25.423Z,10.50
2022-12-27T16:30:49.566Z,19.80
2022-12-27T16:32:51.109Z,8.20
2022-12-27T16:34:55.791Z,14.70
2022-12-27T16:36:59.433Z,9.88
2022-12-27T16:39:24.445Z,14.80
2022-12-27T16:41:25.976Z,10.40
2022-12-27T16:43:45.038Z,24.98
2022-12-27T16:46:23.925Z,15.73
2022-12-27T16:49:14.929Z,9.75
2022-12-27T16:51:20.827Z,10.02
2022-12-27T16:53:34.624Z,16.10
2022-12-27T16:55:54.778Z,25.23
2022-12-27T16:58:21.396Z,18.25
2022-12-27T17:00:41.018Z,7.88
2022-12-27T17:02:46.962Z,11.80
2022-12-27T17:04:56.555Z,7.05
2022-12-27T17:06:58.169Z,10.15
2022-12-27T17:09:08.693Z,7.15
2022-12-27T17:11:29.590Z,8.10
2022-12-27T17:13:34.889Z,6.88
2022-12-27T17:15:49.738Z,8.27
2022-12-27T17:17:55.076Z,8.75
2022-12-27T17:20:03.170Z,17.42
2022-12-27T17:22:07.523Z,8.00
2022-12-27T17:24:12.766Z,8.65
2022-12-27T17:26:23.803Z,9.50
2022-12-27T17:28:31.685Z,11.57
2022-12-27T17:30:55.227Z,38.75
2022-12-27T17:33:16.940Z,21.60
2022-12-27T17:35:43.667Z,24.17
2022-12-27T17:38:04.120Z,20.63
2022-12-27T17:40:30.888Z,104.22
2022-12-27T17:43:04.411Z,223.55
2022-12-27T17:45:24.564Z,52.10
2022-12-27T17:47:39.414Z,122.78
2022-12-27T17:49:41.103Z,111.07
2022-12-27T17:52:10.944Z,252.73
2022-12-27T17:54:44.444Z,191.38
2022-12-27T17:57:17.084Z,284.60
2022-12-27T17:59:26.614Z,113.10
2022-12-27T18:01:31.892Z,92.13
2022-12-27T18:03:42.373Z,152.25
2022-12-27T18:05:45.636Z,52.25
2022-12-27T18:07:47.292Z,29.40
2022-12-27T18:09:52.583Z,53.47
2022-12-27T18:11:54.229Z,19.63
2022-12-27T18:13:58.949Z,14.02
2022-12-27T18:16:15.495Z,16.23
2022-12-27T18:18:23.644Z,11.05
2022-12-27T18:20:31.000Z,16.52
2022-12-27T18:22:32.565Z,20.67
2022-12-27T18:24:34.112Z,14.02
2022-12-27T18:26:40.979Z,19.70
2022-12-27T18:28:43.462Z,20.52
2022-12-27T18:31:03.453Z,19.08
2022-12-27T18:33:06.793Z,10.68
2022-12-27T18:35:11.995Z,29.38
2022-12-27T18:37:18.858Z,15.50
2022-12-27T18:39:36.738Z,75.22
2022-12-27T18:41:47.379Z,20.20
2022-12-27T18:43:52.284Z,17.98
2022-12-27T18:45:57.091Z,36.50
2022-12-27T18:48:01.797Z,16.95
2022-12-27T18:50:06.397Z,16.98
2022-12-27T18:52:19.839Z,13.57
2022-12-27T18:54:30.454Z,14.77
2022-12-27T18:56:34.502Z,30.67
2022-12-27T18:58:36.120Z,25.77
2022-12-27T19:01:02.984Z,12.68
2022-12-27T19:03:19.604Z,14.13
2022-12-27T19:05:21.118Z,30.55
2022-12-27T19:07:22.807Z,27.13
2022-12-27T19:09:28.934Z,18.85
2022-12-27T19:11:36.072Z,31.70
2022-12-27T19:14:04.997Z,18.15
2022-12-27T19:16:07.039Z,12.65
2022-12-27T19:18:38.533Z,46.20
2022-12-27T19:20:41.105Z,29.13
2022-12-27T19:22:55.793Z,41.40
2022-12-27T19:25:00.196Z,37.33
2022-12-27T19:27:16.575Z,100.97
2022-12-27T19:29:21.408Z,35.35
2022-12-27T19:31:23.115Z,29.63
2022-12-27T19:33:31.130Z,30.08
2022-12-27T19:35:32.940Z,22.30
2022-12-27T19:37:35.640Z,20.15
2022-12-27T19:39:38.826Z,25.08
2022-12-27T19:41:40.461Z,26.23
2022-12-27T19:43:44.955Z,35.60
2022-12-27T19:45:46.840Z,36.67
2022-12-27T19:47:50.754Z,35.55
2022-12-27T19:49:52.377Z,33.97
2022-12-27T19:51:56.718Z,32.50
2022-12-27T19:53:58.708Z,23.25
2022-12-27T19:56:01.979Z,34.90
2022-12-27T19:58:03.649Z,33.55
2022-12-27T20:00:13.729Z,25.27
2022-12-27T20:02:15.633Z,24.23
2022-12-27T20:04:19.687Z,27.05
2022-12-27T20:06:24.068Z,26.45
2022-12-27T20:08:32.711Z,30.45
2022-12-27T20:10:34.229Z,26.45
2022-12-27T20:12:35.875Z,28.45
2022-12-27T20:14:37.429Z,40.38
2022-12-27T20:16:39.036Z,50.22
2022-12-27T20:18:43.962Z,32.65
2022-12-27T20:20:47.699Z,27.83
2022-12-27T20:22:49.244Z,32.80
2022-12-27T20:24:51.345Z,18.38
2022-12-27T20:26:53.114Z,34.33
2022-12-27T20:28:54.616Z,31.50
2022-12-27T20:30:56.601Z,32.17
2022-12-27T20:32:58.198Z,33.97
2022-12-27T20:34:59.715Z,15.35
2022-12-27T20:37:02.745Z,29.75
2022-12-27T20:39:04.362Z,17.25
2022-12-27T20:41:10.668Z,22.67
2022-12-27T20:43:12.212Z,26.50
2022-12-27T20:45:13.786Z,24.55
2022-12-27T20:47:15.381Z,14.90
2022-12-27T20:49:16.940Z,29.15
2022-12-27T20:51:24.622Z,13.10
2022-12-27T20:53:27.942Z,10.90
2022-12-27T20:55:29.773Z,13.70
2022-12-27T20:57:31.383Z,14.35
2022-12-27T20:59:32.940Z,19.90
2022-12-27T21:01:34.580Z,17.67
2022-12-27T21:03:37.655Z,16.15
2022-12-27T21:05:39.212Z,12.88
2022-12-27T21:07:40.779Z,16.58
2022-12-27T21:09:42.368Z,16.00
2022-12-27T21:11:44.317Z,23.05
2022-12-27T21:13:46.938Z,12.85
2022-12-27T21:15:48.452Z,9.98
2022-12-27T21:17:49.998Z,11.38
2022-12-27T21:19:51.736Z,13.07
2022-12-27T21:21:53.317Z,14.27
2022-12-27T21:23:56.263Z,14.15
2022-12-27T21:26:08.933Z,13.57
2022-12-27T21:28:10.522Z,13.90
2022-12-27T21:30:13.572Z,13.23
2022-12-27T21:32:15.905Z,15.48
2022-12-27T21:34:17.465Z,13.13
2022-12-27T21:36:24.973Z,16.73
2022-12-27T21:38:27.445Z,27.15
2022-12-27T21:40:28.975Z,29.92
2022-12-27T21:42:30.463Z,32.15
2022-12-27T21:44:32.061Z,24.67
2022-12-27T21:46:37.495Z,22.05
2022-12-27T21:48:39.155Z,17.15
2022-12-27T21:50:40.812Z,13.35
2022-12-27T21:52:42.375Z,12.90
2022-12-27T21:54:43.878Z,13.75
2022-12-27T21:56:45.736Z,12.38
2022-12-27T21:58:47.397Z,13.65
2022-12-27T22:00:48.951Z,11.80
2022-12-27T22:02:50.618Z,11.93
2022-12-27T22:04:52.288Z,12.30
2022-12-27T22:06:53.935Z,12.82
2022-12-27T22:09:01.554Z,13.30
2022-12-27T22:11:03.172Z,14.77
2022-12-27T22:13:04.729Z,15.60
2022-12-27T22:15:06.608Z,29.95
2022-12-27T22:17:08.214Z,17.55
2022-12-27T22:19:11.525Z,14.90
2022-12-27T22:21:16.418Z,15.00
2022-12-27T22:23:18.429Z,15.43
2022-12-27T22:25:20.045Z,16.13
2022-12-27T22:27:21.611Z,13.23
2022-12-27T22:29:24.077Z,14.00
2022-12-27T22:31:31.075Z,13.23
2022-12-27T22:33:33.062Z,12.60
2022-12-27T22:35:34.722Z,12.80
2022-12-27T22:37:36.352Z,12.73
2022-12-27T22:39:37.888Z,12.98
2022-12-27T22:41:39.511Z,16.52
2022-12-27T22:43:43.157Z,20.88
2022-12-27T22:45:50.328Z,31.90
2022-12-27T22:47:55.059Z,30.02
2022-12-27T22:49:56.657Z,19.58
2022-12-27T22:51:58.296Z,16.08
2022-12-27T22:54:00.987Z,15.52
2022-12-27T22:56:02.579Z,13.63
2022-12-27T22:58:04.092Z,13.02
2022-12-27T23:00:12.500Z,14.18
2022-12-27T23:02:14.340Z,14.10
2022-12-27T23:04:16.074Z,14.20
2022-12-27T23:06:17.983Z,13.13
2022-12-27T23:08:19.503Z,12.27
2022-12-27T23:10:21.102Z,12.00
2022-12-27T23:12:22.668Z,11.98
2022-12-27T23:14:24.289Z,12.18
2022-12-27T23:16:26.233Z,11.57
2022-12-27T23:18:28.989Z,12.05
2022-12-27T23:20:34.015Z,12.13
2022-12-27T23:22:35.564Z,15.85
2022-12-27T23:24:37.138Z,11.18
2022-12-27T23:26:40.027Z,10.35
2022-12-27T23:28:43.791Z,12.85
2022-12-27T23:30:45.328Z,9.93
2022-12-27T23:32:46.818Z,10.57
2022-12-27T23:34:48.409Z,10.68
2022-12-27T23:36:49.990Z,11.27
2022-12-27T23:38:51.648Z,10.10
2022-12-27T23:40:58.090Z,10.77
2022-12-27T23:43:25.747Z,12.52
2022-12-27T23:45:21.182Z,11.73
2022-12-27T23:47:22.821Z,9.70
2022-12-27T23:49:24.345Z,10.65
2022-12-27T23:51:26.520Z,10.48
2022-12-27T23:53:28.168Z,9.93
2022-12-27T23:55:29.719Z,9.93
2022-12-27T23:57:31.255Z,9.70
2022-12-27T23:59:32.775Z,9.98
